sensor_id;sensor_type;location;lat;lon;timestamp;pressure;altitude;pressure_sealevel;temperature;humidity
71770;BME280;66386;52.122;5.420;2023-04-23T00:01:05;100882.47;;;7.21;92.48
71770;BME280;66386;52.122;5.420;2023-04-23T00:03:32;100893.59;;;7.18;92.65
71770;BME280;66386;52.122;5.420;2023-04-23T00:06:04;100882.59;;;7.16;92.69
71770;BME280;66386;52.122;5.420;2023-04-23T00:08:32;100885.22;;;7.13;92.67
71770;BME280;66386;52.122;5.420;2023-04-23T00:11:01;100882.75;;;7.08;92.39
71770;BME280;66386;52.122;5.420;2023-04-23T00:13:27;100889.59;;;7.06;92.50
71770;BME280;66386;52.122;5.420;2023-04-23T00:15:54;100884.56;;;7.03;92.50
71770;BME280;66386;52.122;5.420;2023-04-23T00:18:21;100889.75;;;7.00;92.61
71770;BME280;66386;52.122;5.420;2023-04-23T00:20:47;100890.63;;;6.97;92.80
71770;BME280;66386;52.122;5.420;2023-04-23T00:23:14;100883.84;;;6.96;92.77
71770;BME280;66386;52.122;5.420;2023-04-23T00:25:40;100881.31;;;6.95;92.81
71770;BME280;66386;52.122;5.420;2023-04-23T00:28:07;100879.63;;;6.95;93.03
71770;BME280;66386;52.122;5.420;2023-04-23T00:30:33;100869.47;;;6.92;93.01
71770;BME280;66386;52.122;5.420;2023-04-23T00:33:00;100877.97;;;6.93;93.14
71770;BME280;66386;52.122;5.420;2023-04-23T00:35:26;100877.09;;;6.94;93.35
71770;BME280;66386;52.122;5.420;2023-04-23T00:37:53;100872.84;;;6.93;93.39
71770;BME280;66386;52.122;5.420;2023-04-23T00:40:19;100873.69;;;6.93;93.35
71770;BME280;66386;52.122;5.420;2023-04-23T00:42:46;100866.91;;;6.92;93.15
71770;BME280;66386;52.122;5.420;2023-04-23T00:45:14;100856.69;;;6.92;93.31
71770;BME280;66386;52.122;5.420;2023-04-23T00:47:41;100853.31;;;6.90;93.45
71770;BME280;66386;52.122;5.420;2023-04-23T00:50:09;100849.97;;;6.88;93.53
71770;BME280;66386;52.122;5.420;2023-04-23T00:52:35;100851.69;;;6.86;93.46
71770;BME280;66386;52.122;5.420;2023-04-23T00:55:04;100844.06;;;6.85;93.63
71770;BME280;66386;52.122;5.420;2023-04-23T00:57:31;100849.22;;;6.83;93.74
71770;BME280;66386;52.122;5.420;2023-04-23T00:59:58;100846.69;;;6.81;93.63
71770;BME280;66386;52.122;5.420;2023-04-23T01:02:26;100849.28;;;6.80;94.02
71770;BME280;66386;52.122;5.420;2023-04-23T01:04:57;100840.78;;;6.79;93.84
71770;BME280;66386;52.122;5.420;2023-04-23T01:07:24;100842.47;;;6.80;93.92
71770;BME280;66386;52.122;5.420;2023-04-23T01:09:51;100843.22;;;6.84;93.96
71770;BME280;66386;52.122;5.420;2023-04-23T01:12:18;100839.75;;;6.88;94.23
71770;BME280;66386;52.122;5.420;2023-04-23T01:14:44;100838.03;;;6.89;94.22
71770;BME280;66386;52.122;5.420;2023-04-23T01:17:11;100827.75;;;6.90;94.18
71770;BME280;66386;52.122;5.420;2023-04-23T01:19:38;100826.94;;;6.90;94.60
71770;BME280;66386;52.122;5.420;2023-04-23T01:22:12;100821.81;;;6.90;94.72
71770;BME280;66386;52.122;5.420;2023-04-23T01:24:39;100815.03;;;6.89;94.57
71770;BME280;66386;52.122;5.420;2023-04-23T01:27:09;100822.72;;;6.87;94.69
71770;BME280;66386;52.122;5.420;2023-04-23T01:29:37;100808.25;;;6.86;94.79
71770;BME280;66386;52.122;5.420;2023-04-23T01:32:04;100808.31;;;6.85;94.78
71770;BME280;66386;52.122;5.420;2023-04-23T01:34:33;100803.19;;;6.85;94.62
71770;BME280;66386;52.122;5.420;2023-04-23T01:37:02;100803.19;;;6.85;94.70
71770;BME280;66386;52.122;5.420;2023-04-23T01:39:29;100806.69;;;6.82;94.91
71770;BME280;66386;52.122;5.420;2023-04-23T01:41:56;100813.44;;;6.83;94.79
71770;BME280;66386;52.122;5.420;2023-04-23T01:44:23;100804.94;;;6.82;94.86
71770;BME280;66386;52.122;5.420;2023-04-23T01:46:50;100801.59;;;6.80;94.79
71770;BME280;66386;52.122;5.420;2023-04-23T01:49:16;100800.75;;;6.80;94.65
71770;BME280;66386;52.122;5.420;2023-04-23T01:51:43;100801.63;;;6.77;94.87
71770;BME280;66386;52.122;5.420;2023-04-23T01:54:09;100796.53;;;6.77;94.36
71770;BME280;66386;52.122;5.420;2023-04-23T01:56:36;100799.09;;;6.77;94.67
71770;BME280;66386;52.122;5.420;2023-04-23T01:59:02;100797.41;;;6.78;94.67
71770;BME280;66386;52.122;5.420;2023-04-23T02:01:43;100795.59;;;6.81;94.77
71770;BME280;66386;52.122;5.420;2023-04-23T02:04:11;100792.13;;;6.84;94.69
71770;BME280;66386;52.122;5.420;2023-04-23T02:06:39;100793.75;;;6.88;94.89
71770;BME280;66386;52.122;5.420;2023-04-23T02:09:06;100792.81;;;6.92;94.96
71770;BME280;66386;52.122;5.420;2023-04-23T02:11:33;100783.34;;;6.96;95.17
71770;BME280;66386;52.122;5.420;2023-04-23T02:14:00;100791.00;;;6.97;95.09
71770;BME280;66386;52.122;5.420;2023-04-23T02:16:27;100785.84;;;6.99;95.18
71770;BME280;66386;52.122;5.420;2023-04-23T02:18:54;100772.16;;;7.02;95.30
71770;BME280;66386;52.122;5.420;2023-04-23T02:21:22;100773.81;;;7.04;95.51
71770;BME280;66386;52.122;5.420;2023-04-23T02:23:49;100773.75;;;7.07;95.48
71770;BME280;66386;52.122;5.420;2023-04-23T02:26:16;100769.38;;;7.11;95.61
71770;BME280;66386;52.122;5.420;2023-04-23T02:28:45;100770.25;;;7.11;95.79
71770;BME280;66386;52.122;5.420;2023-04-23T02:31:11;100766.75;;;7.14;95.66
71770;BME280;66386;52.122;5.420;2023-04-23T02:33:40;100766.75;;;7.14;95.69
71770;BME280;66386;52.122;5.420;2023-04-23T02:36:08;100765.06;;;7.14;95.66
71770;BME280;66386;52.122;5.420;2023-04-23T02:38:37;100759.06;;;7.15;95.66
71770;BME280;66386;52.122;5.420;2023-04-23T02:41:07;100771.03;;;7.13;95.65
71770;BME280;66386;52.122;5.420;2023-04-23T02:43:33;100764.22;;;7.12;95.60
71770;BME280;66386;52.122;5.420;2023-04-23T02:46:00;100763.44;;;7.10;95.63
71770;BME280;66386;52.122;5.420;2023-04-23T02:48:38;100761.75;;;7.09;95.69
71770;BME280;66386;52.122;5.420;2023-04-23T02:51:09;100760.00;;;7.11;95.91
71770;BME280;66386;52.122;5.420;2023-04-23T02:53:36;100757.47;;;7.11;95.76
71770;BME280;66386;52.122;5.420;2023-04-23T02:56:03;100762.59;;;7.10;95.90
71770;BME280;66386;52.122;5.420;2023-04-23T02:58:29;100771.94;;;7.11;96.01
71770;BME280;66386;52.122;5.420;2023-04-23T03:00:56;100765.97;;;7.12;95.99
71770;BME280;66386;52.122;5.420;2023-04-23T03:03:23;100764.25;;;7.11;95.91
71770;BME280;66386;52.122;5.420;2023-04-23T03:05:52;100759.13;;;7.12;96.09
71770;BME280;66386;52.122;5.420;2023-04-23T03:08:18;100759.06;;;7.14;96.04
71770;BME280;66386;52.122;5.420;2023-04-23T03:10:45;100762.50;;;7.14;95.98
71770;BME280;66386;52.122;5.420;2023-04-23T03:13:11;100765.88;;;7.15;96.03
71770;BME280;66386;52.122;5.420;2023-04-23T03:15:39;100762.47;;;7.16;96.02
71770;BME280;66386;52.122;5.420;2023-04-23T03:18:06;100766.75;;;7.15;96.01
71770;BME280;66386;52.122;5.420;2023-04-23T03:20:34;100766.69;;;7.17;96.02
71770;BME280;66386;52.122;5.420;2023-04-23T03:23:01;100761.56;;;7.19;96.03
71770;BME280;66386;52.122;5.420;2023-04-23T03:25:28;100757.31;;;7.18;96.06
71770;BME280;66386;52.122;5.420;2023-04-23T03:27:54;100761.56;;;7.19;96.26
71770;BME280;66386;52.122;5.420;2023-04-23T03:30:21;100755.56;;;7.18;96.35
71770;BME280;66386;52.122;5.420;2023-04-23T03:32:48;100753.06;;;7.16;96.32
71770;BME280;66386;52.122;5.420;2023-04-23T03:35:15;100752.19;;;7.18;96.18
71770;BME280;66386;52.122;5.420;2023-04-23T03:37:42;100748.81;;;7.17;96.38
71770;BME280;66386;52.122;5.420;2023-04-23T03:40:08;100741.94;;;7.19;96.58
71770;BME280;66386;52.122;5.420;2023-04-23T03:42:35;100740.16;;;7.21;96.63
71770;BME280;66386;52.122;5.420;2023-04-23T03:45:03;100750.38;;;7.21;96.78
71770;BME280;66386;52.122;5.420;2023-04-23T03:47:30;100745.31;;;7.20;96.56
71770;BME280;66386;52.122;5.420;2023-04-23T03:49:56;100749.59;;;7.19;96.69
71770;BME280;66386;52.122;5.420;2023-04-23T03:52:23;100755.53;;;7.20;96.85
71770;BME280;66386;52.122;5.420;2023-04-23T03:54:50;100747.03;;;7.19;96.65
71770;BME280;66386;52.122;5.420;2023-04-23T03:57:16;100740.25;;;7.18;96.87
71770;BME280;66386;52.122;5.420;2023-04-23T03:59:42;100742.00;;;7.16;96.87
71770;BME280;66386;52.122;5.420;2023-04-23T04:02:09;100738.63;;;7.14;96.90
71770;BME280;66386;52.122;5.420;2023-04-23T04:04:36;100737.81;;;7.13;96.85
71770;BME280;66386;52.122;5.420;2023-04-23T04:07:03;100735.25;;;7.13;96.96
71770;BME280;66386;52.122;5.420;2023-04-23T04:09:32;100740.44;;;7.10;96.92
71770;BME280;66386;52.122;5.420;2023-04-23T04:11:58;100738.00;;;7.06;96.95
71770;BME280;66386;52.122;5.420;2023-04-23T04:14:25;100737.13;;;7.05;96.81
71770;BME280;66386;52.122;5.420;2023-04-23T04:16:51;100737.19;;;7.04;96.98
71770;BME280;66386;52.122;5.420;2023-04-23T04:19:19;100733.78;;;7.03;96.97
71770;BME280;66386;52.122;5.420;2023-04-23T04:21:45;100734.59;;;7.05;97.13
71770;BME280;66386;52.122;5.420;2023-04-23T04:24:13;100735.47;;;7.04;97.18
71770;BME280;66386;52.122;5.420;2023-04-23T04:26:39;100732.13;;;7.01;97.13
71770;BME280;66386;52.122;5.420;2023-04-23T04:29:06;100735.56;;;7.01;97.28
71770;BME280;66386;52.122;5.420;2023-04-23T04:31:34;100730.47;;;6.99;97.38
71770;BME280;66386;52.122;5.420;2023-04-23T04:34:01;100736.50;;;6.97;97.40
71770;BME280;66386;52.122;5.420;2023-04-23T04:36:27;100740.75;;;6.96;97.51
71770;BME280;66386;52.122;5.420;2023-04-23T04:38:55;100741.59;;;6.97;97.54
71770;BME280;66386;52.122;5.420;2023-04-23T04:41:26;100740.75;;;6.96;97.54
71770;BME280;66386;52.122;5.420;2023-04-23T04:43:53;100741.59;;;6.97;97.49
71770;BME280;66386;52.122;5.420;2023-04-23T04:46:20;100740.78;;;6.95;97.46
71770;BME280;66386;52.122;5.420;2023-04-23T04:48:47;100744.16;;;6.97;97.58
71770;BME280;66386;52.122;5.420;2023-04-23T04:51:13;100741.69;;;6.94;97.64
71770;BME280;66386;52.122;5.420;2023-04-23T04:53:40;100740.78;;;6.95;97.55
71770;BME280;66386;52.122;5.420;2023-04-23T04:56:07;100739.13;;;6.94;97.73
71770;BME280;66386;52.122;5.420;2023-04-23T04:58:34;100748.41;;;6.96;97.60
71770;BME280;66386;52.122;5.420;2023-04-23T05:01:00;100744.13;;;6.98;97.69
71770;BME280;66386;52.122;5.420;2023-04-23T05:03:27;100749.16;;;7.02;97.78
71770;BME280;66386;52.122;5.420;2023-04-23T05:05:54;100752.47;;;7.05;97.71
71770;BME280;66386;52.122;5.420;2023-04-23T05:08:21;100747.19;;;7.13;97.82
71770;BME280;66386;52.122;5.420;2023-04-23T05:10:48;100739.44;;;7.16;97.83
71770;BME280;66386;52.122;5.420;2023-04-23T05:13:19;100738.53;;;7.19;97.84
71770;BME280;66386;52.122;5.420;2023-04-23T05:15:45;100743.66;;;7.19;98.00
71770;BME280;66386;52.122;5.420;2023-04-23T05:18:12;100739.41;;;7.18;97.81
71770;BME280;66386;52.122;5.420;2023-04-23T05:20:39;100744.56;;;7.16;97.75
71770;BME280;66386;52.122;5.420;2023-04-23T05:23:06;100742.88;;;7.15;97.72
71770;BME280;66386;52.122;5.420;2023-04-23T05:25:32;100741.13;;;7.17;97.89
71770;BME280;66386;52.122;5.420;2023-04-23T05:28:00;100741.88;;;7.21;98.07
71770;BME280;66386;52.122;5.420;2023-04-23T05:30:27;100748.56;;;7.26;97.98
71770;BME280;66386;52.122;5.420;2023-04-23T05:32:54;100750.19;;;7.30;97.88
71770;BME280;66386;52.122;5.420;2023-04-23T05:35:20;100753.44;;;7.36;98.10
71770;BME280;66386;52.122;5.420;2023-04-23T05:37:47;100746.59;;;7.38;98.18
71770;BME280;66386;52.122;5.420;2023-04-23T05:40:13;100741.41;;;7.41;98.04
71770;BME280;66386;52.122;5.420;2023-04-23T05:42:40;100745.53;;;7.46;98.20
71770;BME280;66386;52.122;5.420;2023-04-23T05:45:07;100742.03;;;7.49;98.06
71770;BME280;66386;52.122;5.420;2023-04-23T05:47:34;100754.72;;;7.54;98.00
71770;BME280;66386;52.122;5.420;2023-04-23T05:50:01;100749.53;;;7.57;98.22
71770;BME280;66386;52.122;5.420;2023-04-23T05:52:28;100753.66;;;7.62;97.97
71770;BME280;66386;52.122;5.420;2023-04-23T05:54:58;100754.41;;;7.66;97.98
71770;BME280;66386;52.122;5.420;2023-04-23T05:57:24;100749.16;;;7.71;98.04
71770;BME280;66386;52.122;5.420;2023-04-23T05:59:51;100743.06;;;7.75;97.97
71770;BME280;66386;52.122;5.420;2023-04-23T06:02:18;100738.66;;;7.81;98.22
71770;BME280;66386;52.122;5.420;2023-04-23T06:04:45;100742.75;;;7.87;98.08
71770;BME280;66386;52.122;5.420;2023-04-23T06:07:12;100747.72;;;7.93;98.12
71770;BME280;66386;52.122;5.420;2023-04-23T06:09:40;100744.06;;;8.02;98.12
71770;BME280;66386;52.122;5.420;2023-04-23T06:12:06;100739.47;;;8.13;98.13
71770;BME280;66386;52.122;5.420;2023-04-23T06:14:33;100736.47;;;8.29;98.23
71770;BME280;66386;52.122;5.420;2023-04-23T06:16:59;100731.88;;;8.40;98.16
71770;BME280;66386;52.122;5.420;2023-04-23T06:19:26;100728.34;;;8.46;98.05
71770;BME280;66386;52.122;5.420;2023-04-23T06:21:53;100722.31;;;8.47;98.11
71770;BME280;66386;52.122;5.420;2023-04-23T06:24:19;100727.38;;;8.50;97.98
71770;BME280;66386;52.122;5.420;2023-04-23T06:26:46;100723.75;;;8.55;98.01
71770;BME280;66386;52.122;5.420;2023-04-23T06:29:13;100729.53;;;8.62;98.05
71770;BME280;66386;52.122;5.420;2023-04-23T06:31:39;100725.75;;;8.74;97.86
71770;BME280;66386;52.122;5.420;2023-04-23T06:34:07;100726.41;;;8.81;97.82
71770;BME280;66386;52.122;5.420;2023-04-23T06:36:33;100722.78;;;8.88;97.65
71770;BME280;66386;52.122;5.420;2023-04-23T06:39:00;100720.84;;;8.95;97.52
71770;BME280;66386;52.122;5.420;2023-04-23T06:41:26;100711.19;;;9.03;97.54
71770;BME280;66386;52.122;5.420;2023-04-23T06:43:53;100708.75;;;9.25;97.76
71770;BME280;66386;52.122;5.420;2023-04-23T06:46:19;100701.78;;;9.54;97.59
71770;BME280;66386;52.122;5.420;2023-04-23T06:48:46;100700.94;;;9.78;97.08
71770;BME280;66386;52.122;5.420;2023-04-23T06:51:13;100707.06;;;9.98;96.49
71770;BME280;66386;52.122;5.420;2023-04-23T06:53:40;100707.41;;;10.12;95.43
71770;BME280;66386;52.122;5.420;2023-04-23T06:56:07;100705.78;;;10.34;95.08
71770;BME280;66386;52.122;5.420;2023-04-23T06:58:34;100699.03;;;10.53;93.64
71770;BME280;66386;52.122;5.420;2023-04-23T07:01:00;100692.28;;;10.73;92.72
71770;BME280;66386;52.122;5.420;2023-04-23T07:03:29;100701.75;;;10.93;92.29
71770;BME280;66386;52.122;5.420;2023-04-23T07:05:56;100696.78;;;11.10;91.08
71770;BME280;66386;52.122;5.420;2023-04-23T07:08:23;100691.69;;;11.29;90.08
71770;BME280;66386;52.122;5.420;2023-04-23T07:10:50;100692.69;;;11.46;89.75
71770;BME280;66386;52.122;5.420;2023-04-23T07:13:16;100702.13;;;11.66;87.84
71770;BME280;66386;52.122;5.420;2023-04-23T07:15:43;100695.53;;;11.79;86.98
71770;BME280;66386;52.122;5.420;2023-04-23T07:18:09;100696.38;;;12.00;86.22
71770;BME280;66386;52.122;5.420;2023-04-23T07:20:36;100694.91;;;12.14;86.22
71770;BME280;66386;52.122;5.420;2023-04-23T07:23:03;100690.28;;;12.20;84.68
71770;BME280;66386;52.122;5.420;2023-04-23T07:25:30;100689.38;;;12.40;85.09
71770;BME280;66386;52.122;5.420;2023-04-23T07:27:56;100691.25;;;12.56;83.83
71770;BME280;66386;52.122;5.420;2023-04-23T07:30:24;100684.50;;;12.71;84.09
71770;BME280;66386;52.122;5.420;2023-04-23T07:32:51;100688.63;;;12.92;83.13
71770;BME280;66386;52.122;5.420;2023-04-23T07:35:18;100685.28;;;13.08;83.37
71770;BME280;66386;52.122;5.420;2023-04-23T07:37:44;100688.38;;;13.32;82.92
71770;BME280;66386;52.122;5.420;2023-04-23T07:40:11;100687.16;;;13.57;82.11
71770;BME280;66386;52.122;5.420;2023-04-23T07:42:37;100692.19;;;13.76;81.29
71770;BME280;66386;52.122;5.420;2023-04-23T07:45:05;100679.53;;;13.87;80.08
71770;BME280;66386;52.122;5.420;2023-04-23T07:47:32;100679.78;;;13.99;79.20
71770;BME280;66386;52.122;5.420;2023-04-23T07:49:58;100679.31;;;14.08;79.51
71770;BME280;66386;52.122;5.420;2023-04-23T07:52:25;100675.78;;;14.25;78.57
71770;BME280;66386;52.122;5.420;2023-04-23T07:54:52;100675.56;;;14.29;78.87
71770;BME280;66386;52.122;5.420;2023-04-23T07:57:18;100672.44;;;14.39;76.38
71770;BME280;66386;52.122;5.420;2023-04-23T07:59:44;100666.66;;;14.49;77.29
71770;BME280;66386;52.122;5.420;2023-04-23T08:02:11;100667.56;;;14.64;76.61
71770;BME280;66386;52.122;5.420;2023-04-23T08:04:38;100675.56;;;14.76;76.19
71770;BME280;66386;52.122;5.420;2023-04-23T08:07:04;100677.06;;;14.80;76.19
71770;BME280;66386;52.122;5.420;2023-04-23T08:09:31;100669.72;;;14.88;75.18
71770;BME280;66386;52.122;5.420;2023-04-23T08:11:58;100663.81;;;15.00;74.25
71770;BME280;66386;52.122;5.420;2023-04-23T08:14:24;100668.44;;;15.10;73.37
71770;BME280;66386;52.122;5.420;2023-04-23T08:16:50;100668.72;;;15.19;73.63
71770;BME280;66386;52.122;5.420;2023-04-23T08:19:17;100667.06;;;15.33;74.06
71770;BME280;66386;52.122;5.420;2023-04-23T08:21:43;100659.50;;;15.44;73.01
71770;BME280;66386;52.122;5.420;2023-04-23T08:24:10;100655.72;;;15.50;73.38
71770;BME280;66386;52.122;5.420;2023-04-23T08:26:36;100653.69;;;15.55;73.39
71770;BME280;66386;52.122;5.420;2023-04-23T08:29:02;100663.78;;;15.60;72.01
71770;BME280;66386;52.122;5.420;2023-04-23T08:31:30;100655.91;;;15.76;71.75
71770;BME280;66386;52.122;5.420;2023-04-23T08:33:57;100652.75;;;15.85;71.54
71770;BME280;66386;52.122;5.420;2023-04-23T08:36:23;100654.34;;;15.87;70.47
71770;BME280;66386;52.122;5.420;2023-04-23T08:38:50;100648.16;;;16.03;71.67
71770;BME280;66386;52.122;5.420;2023-04-23T08:41:17;100658.13;;;16.23;70.63
71770;BME280;66386;52.122;5.420;2023-04-23T08:43:51;100650.19;;;16.39;70.36
71770;BME280;66386;52.122;5.420;2023-04-23T08:46:21;100650.13;;;16.54;68.92
71770;BME280;66386;52.122;5.420;2023-04-23T08:48:51;100644.34;;;16.63;68.88
71770;BME280;66386;52.122;5.420;2023-04-23T08:51:20;100649.97;;;16.70;68.51
71770;BME280;66386;52.122;5.420;2023-04-23T08:53:49;100652.56;;;16.70;66.91
71770;BME280;66386;52.122;5.420;2023-04-23T08:56:18;100650.81;;;16.83;67.31
71770;BME280;66386;52.122;5.420;2023-04-23T08:58:47;100645.88;;;16.93;67.28
71770;BME280;66386;52.122;5.420;2023-04-23T09:01:16;100646.59;;;17.21;66.57
71770;BME280;66386;52.122;5.420;2023-04-23T09:03:43;100648.88;;;17.38;66.15
71770;BME280;66386;52.122;5.420;2023-04-23T09:06:10;100651.97;;;17.69;64.46
71770;BME280;66386;52.122;5.420;2023-04-23T09:08:37;100640.50;;;17.85;62.90
71770;BME280;66386;52.122;5.420;2023-04-23T09:11:04;100639.56;;;18.23;63.33
71770;BME280;66386;52.122;5.420;2023-04-23T09:13:32;100640.78;;;18.65;63.03
71770;BME280;66386;52.122;5.420;2023-04-23T09:16:00;100646.38;;;18.83;60.00
71770;BME280;66386;52.122;5.420;2023-04-23T09:18:26;100643.56;;;18.51;60.53
71770;BME280;66386;52.122;5.420;2023-04-23T09:20:53;100640.50;;;18.57;60.27
71770;BME280;66386;52.122;5.420;2023-04-23T09:23:20;100642.25;;;18.81;60.18
71770;BME280;66386;52.122;5.420;2023-04-23T09:25:47;100640.56;;;18.80;60.11
71770;BME280;66386;52.122;5.420;2023-04-23T09:28:14;100642.31;;;18.68;60.20
71770;BME280;66386;52.122;5.420;2023-04-23T09:30:45;100639.91;;;18.54;60.90
71770;BME280;66386;52.122;5.420;2023-04-23T09:33:15;100634.53;;;18.79;58.29
71770;BME280;66386;52.122;5.420;2023-04-23T09:35:43;100628.13;;;18.83;59.19
71770;BME280;66386;52.122;5.420;2023-04-23T09:38:13;100623.25;;;19.03;57.82
71770;BME280;66386;52.122;5.420;2023-04-23T09:40:40;100627.75;;;19.24;58.04
71770;BME280;66386;52.122;5.420;2023-04-23T09:43:09;100620.06;;;19.33;57.91
71770;BME280;66386;52.122;5.420;2023-04-23T09:45:46;100624.19;;;19.47;56.62
71770;BME280;66386;52.122;5.420;2023-04-23T09:48:13;100627.16;;;19.20;57.63
71770;BME280;66386;52.122;5.420;2023-04-23T09:50:40;100622.66;;;18.88;59.07
71770;BME280;66386;52.122;5.420;2023-04-23T09:53:08;100621.69;;;19.00;58.25
71770;BME280;66386;52.122;5.420;2023-04-23T09:55:37;100617.94;;;19.16;57.33
71770;BME280;66386;52.122;5.420;2023-04-23T09:58:09;100619.13;;;19.23;58.43
71770;BME280;66386;52.122;5.420;2023-04-23T10:00:38;100624.44;;;19.10;55.04
71770;BME280;66386;52.122;5.420;2023-04-23T10:03:06;100617.09;;;19.04;56.27
71770;BME280;66386;52.122;5.420;2023-04-23T10:05:39;100628.25;;;18.71;57.29
71770;BME280;66386;52.122;5.420;2023-04-23T10:08:27;100619.03;;;18.42;58.10
71770;BME280;66386;52.122;5.420;2023-04-23T10:10:53;100616.44;;;18.42;56.61
71770;BME280;66386;52.122;5.420;2023-04-23T10:13:41;100619.47;;;18.60;56.75
71770;BME280;66386;52.122;5.420;2023-04-23T10:16:09;100621.97;;;18.73;54.87
71770;BME280;66386;52.122;5.420;2023-04-23T10:18:49;100624.22;;;18.66;56.83
71770;BME280;66386;52.122;5.420;2023-04-23T10:21:16;100618.50;;;18.61;57.96
71770;BME280;66386;52.122;5.420;2023-04-23T10:23:46;100606.69;;;19.04;57.08
71770;BME280;66386;52.122;5.420;2023-04-23T10:26:16;100610.69;;;18.97;54.03
71770;BME280;66386;52.122;5.420;2023-04-23T10:28:46;100613.34;;;18.73;54.33
71770;BME280;66386;52.122;5.420;2023-04-23T10:31:14;100606.84;;;18.78;55.79
71770;BME280;66386;52.122;5.420;2023-04-23T10:33:44;100599.72;;;18.69;53.67
71770;BME280;66386;52.122;5.420;2023-04-23T10:36:25;100609.59;;;18.41;56.14
71770;BME280;66386;52.122;5.420;2023-04-23T10:38:52;100599.66;;;18.46;56.28
71770;BME280;66386;52.122;5.420;2023-04-23T10:41:30;100596.53;;;18.30;55.59
71770;BME280;66386;52.122;5.420;2023-04-23T10:43:59;100589.63;;;18.18;57.55
71770;BME280;66386;52.122;5.420;2023-04-23T10:46:29;100588.84;;;18.28;56.59
71770;BME280;66386;52.122;5.420;2023-04-23T10:49:13;100585.50;;;18.26;55.52
71770;BME280;66386;52.122;5.420;2023-04-23T10:51:44;100587.78;;;18.31;55.41
71770;BME280;66386;52.122;5.420;2023-04-23T10:54:31;100582.03;;;18.39;55.87
71770;BME280;66386;52.122;5.420;2023-04-23T10:57:03;100581.84;;;18.53;55.13
71770;BME280;66386;52.122;5.420;2023-04-23T10:59:31;100577.72;;;18.62;54.91
71770;BME280;66386;52.122;5.420;2023-04-23T11:02:11;100574.13;;;18.98;54.55
71770;BME280;66386;52.122;5.420;2023-04-23T11:04:45;100573.03;;;18.90;54.02
71770;BME280;66386;52.122;5.420;2023-04-23T11:07:12;100564.88;;;18.94;54.47
71770;BME280;66386;52.122;5.420;2023-04-23T11:09:45;100562.41;;;19.04;53.61
71770;BME280;66386;52.122;5.420;2023-04-23T11:14:53;100554.28;;;18.62;52.68
71770;BME280;66386;52.122;5.420;2023-04-23T11:22:42;100546.91;;;18.44;53.56
71770;BME280;66386;52.122;5.420;2023-04-23T11:25:18;100542.78;;;18.53;52.86
71770;BME280;66386;52.122;5.420;2023-04-23T11:27:47;100540.50;;;18.48;52.64
71770;BME280;66386;52.122;5.420;2023-04-23T11:30:16;100537.00;;;18.61;52.51
71770;BME280;66386;52.122;5.420;2023-04-23T11:32:54;100529.31;;;18.71;52.85
71770;BME280;66386;52.122;5.420;2023-04-23T11:35:23;100532.97;;;18.68;51.37
71770;BME280;66386;52.122;5.420;2023-04-23T11:37:53;100528.47;;;18.70;51.97
71770;BME280;66386;52.122;5.420;2023-04-23T11:40:20;100517.06;;;18.95;51.55
71770;BME280;66386;52.122;5.420;2023-04-23T11:42:52;100515.53;;;19.04;49.94
71770;BME280;66386;52.122;5.420;2023-04-23T11:47:48;100508.13;;;19.32;51.15
71770;BME280;66386;52.122;5.420;2023-04-23T11:50:20;100500.09;;;19.24;50.03
71770;BME280;66386;52.122;5.420;2023-04-23T11:52:48;100506.84;;;19.15;51.18
71770;BME280;66386;52.122;5.420;2023-04-23T11:55:15;100501.16;;;19.21;51.67
71770;BME280;66386;52.122;5.420;2023-04-23T11:57:43;100497.47;;;19.24;50.15
71770;BME280;66386;52.122;5.420;2023-04-23T12:00:15;100491.34;;;19.02;50.45
71770;BME280;66386;52.122;5.420;2023-04-23T12:02:54;100490.13;;;18.83;52.17
71770;BME280;66386;52.122;5.420;2023-04-23T12:05:29;100485.16;;;18.80;51.45
71770;BME280;66386;52.122;5.420;2023-04-23T12:08:16;100478.19;;;18.58;50.94
71770;BME280;66386;52.122;5.420;2023-04-23T12:10:50;100480.88;;;18.45;51.72
71770;BME280;66386;52.122;5.420;2023-04-23T12:13:28;100475.59;;;18.58;51.84
71770;BME280;66386;52.122;5.420;2023-04-23T12:16:03;100470.16;;;18.73;52.17
71770;BME280;66386;52.122;5.420;2023-04-23T12:18:34;100467.78;;;18.70;50.99
71770;BME280;66386;52.122;5.420;2023-04-23T12:21:12;100466.94;;;18.80;51.25
71770;BME280;66386;52.122;5.420;2023-04-23T12:23:41;100459.41;;;18.89;52.59
71770;BME280;66386;52.122;5.420;2023-04-23T12:26:10;100459.84;;;18.94;52.37
71770;BME280;66386;52.122;5.420;2023-04-23T12:28:54;100464.25;;;18.93;50.82
71770;BME280;66386;52.122;5.420;2023-04-23T12:31:25;100455.94;;;19.11;50.72
71770;BME280;66386;52.122;5.420;2023-04-23T12:34:05;100448.91;;;19.34;50.31
71770;BME280;66386;52.122;5.420;2023-04-23T12:36:33;100445.78;;;19.40;50.35
71770;BME280;66386;52.122;5.420;2023-04-23T12:39:22;100455.91;;;19.22;51.18
71770;BME280;66386;52.122;5.420;2023-04-23T12:41:55;100443.16;;;18.96;51.30
71770;BME280;66386;52.122;5.420;2023-04-23T12:44:21;100433.59;;;18.86;51.63
71770;BME280;66386;52.122;5.420;2023-04-23T12:46:49;100429.56;;;18.81;50.11
71770;BME280;66386;52.122;5.420;2023-04-23T12:49:22;100432.25;;;19.14;51.93
71770;BME280;66386;52.122;5.420;2023-04-23T12:51:49;100426.38;;;19.33;50.25
71770;BME280;66386;52.122;5.420;2023-04-23T12:54:15;100429.16;;;19.20;49.75
71770;BME280;66386;52.122;5.420;2023-04-23T12:56:42;100418.50;;;19.23;49.88
71770;BME280;66386;52.122;5.420;2023-04-23T12:59:08;100414.59;;;19.17;50.31
71770;BME280;66386;52.122;5.420;2023-04-23T13:01:35;100413.47;;;18.76;49.91
71770;BME280;66386;52.122;5.420;2023-04-23T13:04:01;100417.38;;;18.59;52.33
71770;BME280;66386;52.122;5.420;2023-04-23T13:06:28;100415.03;;;18.56;51.65
71770;BME280;66386;52.122;5.420;2023-04-23T13:08:55;100411.00;;;18.52;51.61
71770;BME280;66386;52.122;5.420;2023-04-23T13:11:22;100393.47;;;18.54;53.62